Time;durP1;ratioP1;P1;durP2;ratioP2;P2;SDS_P1;SDS_P2;PMS_P1;PMS_P2;Temp;Humidity;BMP_temperature;BMP_pressure;BME280_temperature;BME280_humidity;BME280_pressure;Samples;Min_cycle;Max_cycle;Signal;HPM_P1;HPM_P2
2022/12/02 00:00:21;;;;;;;43.10;15.65;;;4.10;99.90;;;;;;5018947;28;20128;-74
2022/12/02 00:02:48;;;;;;;39.83;14.52;;;4.10;99.90;;;;;;5035531;28;20132;-74
2022/12/02 00:05:13;;;;;;;46.47;16.13;;;4.10;99.90;;;;;;5018975;28;20041;-74
2022/12/02 00:07:40;;;;;;;44.85;17.25;;;4.20;99.90;;;;;;5035192;28;20472;-72
2022/12/02 00:10:23;;;;;;;47.63;16.67;;;4.10;99.90;;;;;;5002653;28;20075;-72
2022/12/02 00:12:50;;;;;;;45.22;17.17;;;4.20;99.90;;;;;;5018789;28;20068;-73
2022/12/02 00:15:42;;;;;;;46.88;17.33;;;4.10;99.90;;;;;;5002399;28;20045;-72
2022/12/02 00:18:13;;;;;;;47.00;18.77;;;4.10;99.90;;;;;;5018776;28;20052;-73
2022/12/02 00:20:40;;;;;;;47.08;17.60;;;4.10;99.90;;;;;;5035019;28;20046;-74
2022/12/02 00:23:06;;;;;;;50.13;17.85;;;4.10;99.90;;;;;;5035164;28;20068;-75
2022/12/02 00:25:33;;;;;;;49.90;19.00;;;4.50;99.90;;;;;;5002299;28;20076;-75
2022/12/02 00:27:59;;;;;;;51.17;18.73;;;4.10;99.90;;;;;;5018545;28;20432;-73
2022/12/02 00:30:25;;;;;;;52.83;17.60;;;4.10;99.90;;;;;;5034720;28;20099;-73
2022/12/02 00:32:51;;;;;;;54.35;18.02;;;4.00;99.90;;;;;;5018468;28;20053;-73
2022/12/02 00:35:17;;;;;;;50.22;18.63;;;4.00;99.90;;;;;;5018267;28;20128;-73
2022/12/02 00:37:43;;;;;;;51.22;17.80;;;4.00;99.90;;;;;;5018117;28;20048;-74
2022/12/02 00:40:10;;;;;;;52.35;19.30;;;3.40;99.90;;;;;;5035024;28;20399;-74
2022/12/02 00:42:36;;;;;;;49.70;17.63;;;4.00;99.90;;;;;;5034435;28;20041;-73
2022/12/02 00:47:47;;;;;;;52.00;18.50;;;3.90;99.90;;;;;;5034080;28;20049;-73
2022/12/02 00:50:12;;;;;;;48.90;16.90;;;3.90;99.90;;;;;;5017767;28;20067;-73
2022/12/02 00:52:38;;;;;;;48.83;17.95;;;3.90;99.90;;;;;;5017277;28;20068;-72
2022/12/02 00:55:05;;;;;;;49.75;16.98;;;3.90;99.90;;;;;;4985575;28;20041;-75
2022/12/02 00:57:31;;;;;;;50.58;17.83;;;3.90;99.90;;;;;;5017661;28;20388;-73
2022/12/02 00:59:57;;;;;;;51.63;17.00;;;3.90;99.90;;;;;;5018061;28;20047;-74
2022/12/02 01:02:23;;;;;;;48.08;17.40;;;3.90;99.90;;;;;;5018040;28;20045;-73
2022/12/02 01:04:49;;;;;;;50.80;17.95;;;3.90;99.90;;;;;;5001464;28;20571;-73
2022/12/02 01:07:15;;;;;;;49.35;18.42;;;3.90;99.90;;;;;;5034308;28;20099;-74
2022/12/02 01:09:40;;;;;;;55.47;17.30;;;3.90;99.90;;;;;;5017696;28;20076;-73
2022/12/02 01:12:07;;;;;;;54.33;17.10;;;3.80;99.90;;;;;;5034231;28;20046;-73
2022/12/02 01:14:33;;;;;;;53.50;18.00;;;3.80;99.90;;;;;;4984736;28;20543;-74
2022/12/02 01:16:58;;;;;;;59.03;18.58;;;3.80;99.90;;;;;;5017572;28;20140;-74
2022/12/02 01:19:24;;;;;;;54.65;19.60;;;3.80;99.90;;;;;;5017465;28;20049;-75
2022/12/02 01:21:50;;;;;;;55.58;18.27;;;3.80;99.90;;;;;;5017338;28;20399;-76
2022/12/02 01:24:16;;;;;;;50.95;17.73;;;3.80;99.90;;;;;;4985035;28;20053;-75
2022/12/02 01:26:42;;;;;;;49.45;17.02;;;3.80;99.90;;;;;;5017300;28;20361;-75
2022/12/02 01:29:08;;;;;;;51.97;18.40;;;3.80;99.90;;;;;;5017151;28;20044;-75
2022/12/02 01:31:34;;;;;;;49.47;17.85;;;3.80;99.90;;;;;;5033533;28;20049;-75
2022/12/02 01:34:00;;;;;;;49.00;17.02;;;3.80;99.90;;;;;;5001339;28;20103;-75
2022/12/02 01:36:26;;;;;;;43.83;16.52;;;3.80;99.90;;;;;;5018624;28;20515;-73
2022/12/02 01:38:52;;;;;;;46.40;17.13;;;3.80;99.90;;;;;;5018467;28;20133;-71
2022/12/02 01:41:18;;;;;;;42.88;16.75;;;3.80;99.90;;;;;;5018733;28;20075;-71
2022/12/02 01:43:44;;;;;;;49.35;17.58;;;3.80;99.90;;;;;;5017413;28;20488;-72
2022/12/02 01:46:10;;;;;;;47.47;16.83;;;3.80;99.90;;;;;;5017065;28;20075;-72
2022/12/02 01:48:36;;;;;;;50.83;17.98;;;3.80;99.90;;;;;;5016477;28;20140;-73
2022/12/02 01:51:04;;;;;;;55.10;19.13;;;4.80;99.90;;;;;;5016567;28;20136;-72
2022/12/02 01:53:30;;;;;;;55.15;19.15;;;3.80;99.90;;;;;;5016716;28;20049;-72
2022/12/02 01:55:56;;;;;;;53.17;17.55;;;3.80;99.90;;;;;;5016062;28;20037;-72
2022/12/02 01:58:28;;;;;;;53.28;17.67;;;3.70;99.90;;;;;;5032805;28;20426;-72
2022/12/02 02:00:55;;;;;;;51.28;18.20;;;3.70;99.90;;;;;;5016652;28;20053;-72
2022/12/02 02:03:21;;;;;;;51.72;19.13;;;3.60;99.90;;;;;;5016740;28;20426;-72
2022/12/02 02:05:48;;;;;;;53.55;18.92;;;3.60;99.90;;;;;;5016467;28;20037;-71
2022/12/02 02:08:15;;;;;;;48.60;17.08;;;3.60;99.90;;;;;;5016763;28;20487;-72
2022/12/02 02:10:43;;;;;;;49.00;17.33;;;3.60;99.90;;;;;;5016565;28;20148;-72
2022/12/02 02:13:11;;;;;;;53.95;18.02;;;3.60;99.90;;;;;;5016521;28;20131;-72
2022/12/02 02:15:39;;;;;;;47.10;18.10;;;3.60;99.90;;;;;;5032624;28;20049;-77
2022/12/02 02:18:05;;;;;;;50.75;18.25;;;3.60;99.90;;;;;;5032474;28;20462;-73
2022/12/02 02:20:33;;;;;;;52.65;17.67;;;3.50;99.90;;;;;;5032656;28;20088;-72
2022/12/02 02:23:04;;;;;;;50.95;16.75;;;3.50;99.90;;;;;;5016226;28;20054;-73
2022/12/02 02:25:32;;;;;;;49.75;17.45;;;3.40;99.90;;;;;;5016235;28;20128;-73
2022/12/02 02:28:00;;;;;;;46.60;16.80;;;3.30;99.90;;;;;;5015424;28;20052;-72
2022/12/02 02:30:31;;;;;;;47.22;16.80;;;3.20;99.90;;;;;;5016394;28;20080;-72
2022/12/02 02:32:58;;;;;;;;;;;3.20;99.90;;;;;;5032800;28;20049;-73
2022/12/02 02:35:25;;;;;;;46.47;15.13;;;3.10;99.90;;;;;;5016033;28;19921;-72
2022/12/02 02:37:53;;;;;;;42.30;14.98;;;3.10;99.90;;;;;;5032358;28;20041;-73
2022/12/02 02:40:21;;;;;;;42.65;15.57;;;3.10;99.90;;;;;;5032472;28;20037;-73
2022/12/02 02:42:50;;;;;;;42.38;14.63;;;3.10;99.90;;;;;;4999662;28;20467;-72
2022/12/02 02:45:18;;;;;;;42.40;14.93;;;3.10;99.90;;;;;;5015934;28;20075;-72
2022/12/02 02:47:44;;;;;;;43.15;14.90;;;3.00;99.90;;;;;;4999200;28;20430;-72
2022/12/02 02:50:10;;;;;;;46.58;14.60;;;3.00;99.90;;;;;;5015729;28;20387;-72
2022/12/02 02:52:36;;;;;;;46.78;16.40;;;3.90;99.90;;;;;;5015384;28;20053;-73
2022/12/02 02:55:04;;;;;;;40.75;15.45;;;3.00;99.90;;;;;;5015514;28;20205;-72
2022/12/02 02:57:31;;;;;;;40.55;14.57;;;3.00;99.90;;;;;;4999541;28;20084;-74
2022/12/02 02:59:57;;;;;;;43.17;15.05;;;2.90;99.90;;;;;;5015552;28;20072;-74
2022/12/02 03:02:24;;;;;;;43.03;16.05;;;2.90;99.90;;;;;;4999704;28;20435;-74
2022/12/02 03:04:51;;;;;;;44.13;15.18;;;2.90;99.90;;;;;;5015574;28;20526;-74
2022/12/02 03:07:17;;;;;;;44.15;15.75;;;2.90;99.90;;;;;;5015603;28;20049;-74
2022/12/02 03:09:43;;;;;;;42.25;15.35;;;3.70;99.90;;;;;;5031342;28;20045;-73
2022/12/02 03:12:09;;;;;;;46.67;15.88;;;2.80;99.90;;;;;;5015498;28;20041;-74
2022/12/02 03:14:35;;;;;;;42.95;15.75;;;2.80;99.90;;;;;;4999242;28;20194;-75
2022/12/02 03:17:02;;;;;;;49.67;17.45;;;2.70;99.90;;;;;;5031500;28;20472;-74
2022/12/02 03:19:31;;;;;;;48.40;16.55;;;2.70;99.90;;;;;;5031691;28;20547;-74
2022/12/02 03:21:58;;;;;;;47.78;16.58;;;2.70;99.90;;;;;;5031362;28;20045;-74
2022/12/02 03:24:24;;;;;;;53.10;17.67;;;2.70;99.90;;;;;;4999076;28;20049;-74
2022/12/02 03:26:50;;;;;;;50.25;17.00;;;2.70;99.90;;;;;;4999015;28;20080;-73
2022/12/02 03:29:16;;;;;;;53.10;17.70;;;2.70;99.90;;;;;;4999294;28;20104;-73
2022/12/02 03:31:43;;;;;;;50.20;17.17;;;3.10;99.90;;;;;;4982946;28;20046;-74
2022/12/02 03:34:10;;;;;;;51.92;16.83;;;2.70;99.90;;;;;;4998676;28;20053;-74
2022/12/02 03:36:37;;;;;;;48.70;17.30;;;2.70;99.90;;;;;;5015074;28;20391;-74
2022/12/02 03:39:03;;;;;;;50.10;17.77;;;3.80;99.90;;;;;;5015109;28;20041;-74
2022/12/02 03:44:26;;;;;;;53.72;17.88;;;2.80;99.90;;;;;;4992104;22;10000496;-74
2022/12/02 03:46:52;;;;;;;55.85;16.90;;;2.80;99.90;;;;;;4705794;28;10000170;-74
2022/12/02 03:49:18;;;;;;;53.65;18.08;;;2.80;99.90;;;;;;5076513;28;20055;-74
2022/12/02 03:51:45;;;;;;;54.03;18.70;;;2.80;99.90;;;;;;5062534;28;20055;-74
2022/12/02 03:54:12;;;;;;;56.65;18.40;;;2.80;99.90;;;;;;5075295;28;20048;-74
2022/12/02 03:56:39;;;;;;;54.15;18.58;;;2.80;99.90;;;;;;5078230;28;20548;-74
2022/12/02 03:59:06;;;;;;;56.25;17.48;;;2.80;99.90;;;;;;5058268;28;20135;-74
2022/12/02 04:01:32;;;;;;;58.08;19.13;;;2.80;99.90;;;;;;5058165;28;20058;-74
2022/12/02 04:03:58;;;;;;;59.60;18.80;;;2.80;99.90;;;;;;5057960;28;20044;-72
2022/12/02 04:06:24;;;;;;;51.95;18.50;;;2.90;99.90;;;;;;5074760;28;20090;-73
2022/12/02 04:08:50;;;;;;;57.60;19.83;;;2.90;99.90;;;;;;5074661;28;20083;-74
2022/12/02 04:11:16;;;;;;;53.45;17.67;;;2.90;99.90;;;;;;5041339;28;20490;-73
2022/12/02 04:13:42;;;;;;;52.72;18.05;;;4.00;99.90;;;;;;5041448;28;20055;-74
2022/12/02 04:16:08;;;;;;;55.13;18.38;;;2.90;99.90;;;;;;5074128;28;20052;-73
2022/12/02 04:18:34;;;;;;;61.08;19.67;;;2.90;99.90;;;;;;5057839;28;20102;-73
2022/12/02 04:21:00;;;;;;;59.50;19.80;;;2.90;99.90;;;;;;5059630;28;20051;-75
2022/12/02 04:23:26;;;;;;;59.95;18.95;;;2.90;99.90;;;;;;5061693;28;20080;-73
2022/12/02 04:25:51;;;;;;;56.28;18.33;;;2.90;99.90;;;;;;5061755;28;20048;-74
2022/12/02 04:28:17;;;;;;;58.53;19.85;;;2.90;99.90;;;;;;5061480;28;20048;-73
2022/12/02 04:30:43;;;;;;;60.67;20.67;;;3.60;99.90;;;;;;5061581;28;20044;-74
2022/12/02 04:33:09;;;;;;;62.88;19.42;;;2.90;99.90;;;;;;5061041;28;20044;-74
2022/12/02 04:35:35;;;;;;;54.55;18.65;;;3.00;99.90;;;;;;5061277;28;20090;-73
2022/12/02 04:38:01;;;;;;;58.03;18.73;;;3.00;99.90;;;;;;5061274;28;20406;-75
2022/12/02 04:40:27;;;;;;;55.95;18.13;;;3.00;99.90;;;;;;5041911;28;20652;-76
2022/12/02 04:42:53;;;;;;;59.10;19.90;;;3.00;99.90;;;;;;5059823;28;20076;-76
2022/12/02 04:45:19;;;;;;;64.50;20.38;;;3.00;99.90;;;;;;5058745;28;20131;-74
2022/12/02 04:47:45;;;;;;;60.60;20.02;;;3.00;99.90;;;;;;5042376;28;20139;-75
2022/12/02 04:50:11;;;;;;;62.22;19.15;;;3.00;99.90;;;;;;5055649;28;20040;-75
2022/12/02 04:52:37;;;;;;;57.50;18.75;;;3.00;99.90;;;;;;5055272;28;20494;-74
2022/12/02 04:55:03;;;;;;;58.80;19.27;;;3.00;99.90;;;;;;5055452;28;20093;-75
2022/12/02 04:57:29;;;;;;;57.35;18.88;;;3.00;99.90;;;;;;5055337;28;20048;-74
2022/12/02 04:59:55;;;;;;;56.20;19.30;;;3.10;99.90;;;;;;5038930;28;20044;-75
2022/12/02 05:02:21;;;;;;;63.15;19.83;;;3.00;99.90;;;;;;5022302;28;20098;-76
2022/12/02 05:04:47;;;;;;;59.03;19.73;;;3.00;99.90;;;;;;5055073;28;20739;-76
2022/12/02 05:07:13;;;;;;;57.10;18.83;;;3.10;99.90;;;;;;5038909;28;20040;-76
2022/12/02 05:09:38;;;;;;;57.35;19.25;;;3.10;99.90;;;;;;5022466;28;20401;-77
2022/12/02 05:12:04;;;;;;;54.13;18.02;;;3.10;99.90;;;;;;5022465;28;20752;-76
2022/12/02 05:14:30;;;;;;;65.85;19.48;;;3.10;99.90;;;;;;5022324;28;20113;-76
2022/12/02 05:16:56;;;;;;;63.78;19.98;;;4.00;99.90;;;;;;5054627;28;20494;-77
2022/12/02 05:19:22;;;;;;;64.68;21.20;;;3.60;99.90;;;;;;5038476;28;20105;-77
2022/12/02 05:21:48;;;;;;;67.70;19.48;;;3.20;99.90;;;;;;5022324;28;20102;-76
2022/12/02 05:24:14;;;;;;;60.08;20.00;;;3.30;99.90;;;;;;5055499;28;20478;-76
2022/12/02 05:26:40;;;;;;;62.58;19.83;;;3.20;99.90;;;;;;5075044;28;20430;-76
2022/12/02 05:29:07;;;;;;;65.35;19.75;;;3.30;99.90;;;;;;5025221;28;20054;-77
2022/12/02 05:31:32;;;;;;;63.80;19.60;;;3.30;99.90;;;;;;5057730;28;20473;-76
2022/12/02 05:33:58;;;;;;;56.67;19.60;;;3.30;99.90;;;;;;5074791;28;20126;-77
2022/12/02 05:36:24;;;;;;;58.97;19.58;;;3.30;99.90;;;;;;5074599;28;20060;-77
2022/12/02 05:38:50;;;;;;;62.38;19.23;;;3.30;99.90;;;;;;5074860;28;20044;-77
2022/12/02 05:41:16;;;;;;;69.22;19.85;;;3.50;99.90;;;;;;5058069;28;20094;-77
2022/12/02 05:43:42;;;;;;;70.10;20.17;;;3.40;99.90;;;;;;5043105;28;20063;-75
2022/12/02 05:46:14;;;;;;;67.93;21.42;;;3.40;99.90;;;;;;5076947;28;20104;-75
2022/12/02 05:48:41;;;;;;;71.85;20.98;;;3.40;99.90;;;;;;5076701;28;20048;-76
2022/12/02 05:51:19;;;;;;;70.40;20.38;;;3.80;99.90;;;;;;5076603;28;20490;-75
2022/12/02 05:53:47;;;;;;;69.47;21.38;;;3.50;99.90;;;;;;5076771;28;20104;-76
2022/12/02 05:56:34;;;;;;;66.55;20.60;;;3.50;99.90;;;;;;5076395;28;20131;-79
2022/12/02 05:59:07;;;;;;;75.60;22.17;;;3.50;99.90;;;;;;5076775;28;20051;-75
2022/12/02 06:01:37;;;;;;;69.85;21.17;;;3.50;99.90;;;;;;5059997;28;20048;-75
2022/12/02 06:04:09;;;;;;;72.80;21.55;;;3.50;99.90;;;;;;5077195;28;20058;-76
2022/12/02 06:06:35;;;;;;;;;;;3.60;99.90;;;;;;5065360;28;20052;-75
2022/12/02 06:09:01;;;;;;;66.65;19.85;;;3.60;99.90;;;;;;5077148;28;20430;-76
2022/12/02 06:11:37;;;;;;;68.32;20.83;;;3.60;99.90;;;;;;5081912;28;20393;-75
2022/12/02 06:14:21;;;;;;;63.85;20.17;;;3.60;99.90;;;;;;5076794;28;20040;-75
2022/12/02 06:16:53;;;;;;;67.57;19.45;;;3.60;99.90;;;;;;5059367;28;20048;-75
2022/12/02 06:19:40;;;;;;;72.75;19.90;;;3.60;99.90;;;;;;5076323;28;20106;-76
2022/12/02 06:22:16;;;;;;;64.68;20.80;;;3.60;99.90;;;;;;5076236;28;20048;-76
2022/12/02 06:24:42;;;;;;;59.97;19.40;;;3.60;99.90;;;;;;5059520;28;20044;-76
2022/12/02 06:27:12;;;;;;;55.75;18.88;;;3.60;99.90;;;;;;5076152;28;20378;-76
2022/12/02 06:29:53;;;;;;;64.82;19.58;;;3.50;99.90;;;;;;5075649;28;20090;-75
2022/12/02 06:32:21;;;;;;;61.55;18.35;;;3.50;99.90;;;;;;5059350;28;20052;-78
2022/12/02 06:34:51;;;;;;;61.25;18.38;;;3.50;99.90;;;;;;5059325;28;20036;-76
2022/12/02 06:37:28;;;;;;;53.17;17.98;;;3.50;99.90;;;;;;5059423;28;20052;-76
2022/12/02 06:39:59;;;;;;;60.55;18.63;;;3.50;99.90;;;;;;5059371;28;20055;-76
2022/12/02 06:42:37;;;;;;;64.72;20.50;;;3.40;99.90;;;;;;5058807;28;20097;-75
2022/12/02 06:45:23;;;;;;;65.68;19.48;;;3.80;99.90;;;;;;5075217;28;20062;-75
2022/12/02 06:48:19;;;;;;;60.78;17.75;;;3.40;99.90;;;;;;5075731;28;20097;-76
2022/12/02 06:50:47;;;;;;;62.60;18.33;;;3.40;99.90;;;;;;5075630;28;20062;-76
2022/12/02 06:53:43;;;;;;;58.45;18.35;;;3.30;99.90;;;;;;5075889;28;20040;-75
2022/12/02 06:56:21;;;;;;;61.33;18.63;;;3.30;99.90;;;;;;5042374;28;20052;-76
2022/12/02 06:58:55;;;;;;;57.42;18.10;;;3.30;99.90;;;;;;5075592;28;20040;-75
2022/12/02 07:01:20;;;;;;;63.85;19.35;;;3.30;99.90;;;;;;5058930;28;20512;-75
2022/12/02 07:03:58;;;;;;;62.15;17.95;;;3.30;99.90;;;;;;5075281;28;20048;-76
2022/12/02 07:06:26;;;;;;;61.42;19.08;;;3.30;99.90;;;;;;5075477;28;20436;-75
2022/12/02 07:08:55;;;;;;;65.63;18.83;;;3.30;99.90;;;;;;5075323;28;20043;-76
2022/12/02 07:14:19;;;;;;;;;;;3.30;99.90;;;;;;5075738;28;20051;-76
2022/12/02 07:16:45;;;;;;;57.97;17.33;;;3.30;99.90;;;;;;5074869;28;19947;-76
2022/12/02 07:19:29;;;;;;;62.83;18.63;;;3.20;99.90;;;;;;5058875;28;20134;-76
2022/12/02 07:21:55;;;;;;;65.95;18.48;;;3.20;99.90;;;;;;5074942;28;20048;-76
2022/12/02 07:24:22;;;;;;;63.65;18.33;;;3.20;99.90;;;;;;5074882;28;20056;-76
2022/12/02 07:26:49;;;;;;;66.80;19.80;;;3.20;99.90;;;;;;5041361;28;20051;-75
2022/12/02 07:29:29;;;;;;;59.78;17.35;;;3.20;99.90;;;;;;5058157;28;20062;-75
2022/12/02 07:31:55;;;;;;;61.70;17.73;;;3.20;99.90;;;;;;5074510;28;20131;-77
2022/12/02 07:34:21;;;;;;;63.78;17.05;;;3.20;99.90;;;;;;5041266;28;20123;-76
2022/12/02 07:36:47;;;;;;;62.10;18.38;;;3.20;99.90;;;;;;5057156;28;20044;-75
2022/12/02 07:39:13;;;;;;;56.05;17.35;;;3.20;99.90;;;;;;5074620;28;20051;-76
2022/12/02 07:41:39;;;;;;;59.30;17.63;;;3.20;99.90;;;;;;5057293;28;20051;-75
2022/12/02 07:44:05;;;;;;;67.30;19.10;;;3.10;99.90;;;;;;5065157;28;20092;-75
2022/12/02 07:46:31;;;;;;;64.65;19.88;;;3.20;99.90;;;;;;5035063;28;20101;-77
2022/12/02 07:48:57;;;;;;;64.07;19.63;;;3.20;99.90;;;;;;5035580;28;20136;-76
2022/12/02 07:51:24;;;;;;;63.67;18.90;;;3.20;99.90;;;;;;5034818;28;20133;-74
2022/12/02 07:53:50;;;;;;;64.43;19.52;;;3.10;99.90;;;;;;5018662;28;20611;-75
2022/12/02 07:56:16;;;;;;;64.47;19.60;;;3.20;99.90;;;;;;5053950;28;20167;-76
2022/12/02 07:58:41;;;;;;;58.85;17.48;;;3.10;99.90;;;;;;5038897;28;20049;-76
2022/12/02 08:01:07;;;;;;;65.80;17.02;;;3.20;99.90;;;;;;5055647;28;20396;-76
2022/12/02 08:03:33;;;;;;;56.28;17.25;;;3.10;99.90;;;;;;5038855;28;20052;-76
2022/12/02 08:05:59;;;;;;;53.28;16.45;;;3.60;99.90;;;;;;5039005;28;20053;-75
2022/12/02 08:08:25;;;;;;;62.83;18.23;;;3.10;99.90;;;;;;5055098;28;20049;-76
2022/12/02 08:10:51;;;;;;;61.55;18.17;;;3.10;99.90;;;;;;5038752;28;20091;-75
2022/12/02 08:13:16;;;;;;;61.05;17.95;;;3.10;99.90;;;;;;5038942;28;20048;-76
2022/12/02 08:15:42;;;;;;;63.28;18.33;;;3.10;99.90;;;;;;5021816;28;20048;-76
2022/12/02 08:18:08;;;;;;;55.85;15.80;;;3.10;99.90;;;;;;5038920;28;20049;-75
2022/12/02 08:20:34;;;;;;;60.08;17.13;;;3.20;99.90;;;;;;5040596;28;20434;-76
2022/12/02 08:23:00;;;;;;;56.30;16.73;;;3.10;99.90;;;;;;5043589;28;20561;-75
2022/12/02 08:25:26;;;;;;;57.30;16.85;;;3.10;99.90;;;;;;5040073;28;20063;-75
2022/12/02 08:27:51;;;;;;;59.60;17.65;;;3.10;99.90;;;;;;5060985;28;20474;-76
2022/12/02 08:30:17;;;;;;;58.65;17.35;;;3.10;99.90;;;;;;5055126;28;20514;-76
2022/12/02 08:32:44;;;;;;;59.50;17.30;;;3.10;99.90;;;;;;5037962;28;20045;-75
2022/12/02 08:35:11;;;;;;;56.38;16.60;;;3.00;99.90;;;;;;5021827;28;20041;-76
2022/12/02 08:37:38;;;;;;;58.80;17.45;;;3.00;99.90;;;;;;5054399;28;20491;-75
2022/12/02 08:40:04;;;;;;;56.67;16.95;;;3.00;99.90;;;;;;5037900;28;20059;-75
2022/12/02 08:42:30;;;;;;;62.90;17.63;;;3.00;99.90;;;;;;5021821;28;20041;-75
2022/12/02 08:44:56;;;;;;;62.88;17.88;;;3.00;99.90;;;;;;5037605;28;20584;-75
2022/12/02 08:47:22;;;;;;;64.95;17.95;;;3.00;99.90;;;;;;5021475;28;20084;-75
2022/12/02 08:49:49;;;;;;;65.68;18.00;;;3.00;99.90;;;;;;5054579;28;20068;-75
2022/12/02 08:52:18;;;;;;;56.58;18.40;;;3.00;99.90;;;;;;5021724;28;20082;-76
2022/12/02 08:54:47;;;;;;;63.85;18.17;;;3.00;99.90;;;;;;5037575;28;20376;-75
2022/12/02 08:57:13;;;;;;;60.45;18.58;;;3.00;99.90;;;;;;5054657;28;20110;-75
2022/12/02 08:59:39;;;;;;;62.33;17.90;;;3.10;99.90;;;;;;5037722;28;20052;-80
2022/12/02 09:02:05;;;;;;;58.95;19.00;;;3.10;99.90;;;;;;5054589;28;20107;-76
2022/12/02 09:04:31;;;;;;;60.25;18.52;;;3.10;99.90;;;;;;5021377;28;20507;-76
2022/12/02 09:06:57;;;;;;;68.30;19.55;;;3.20;99.90;;;;;;5053033;28;20133;-76
2022/12/02 09:09:23;;;;;;;65.93;19.65;;;3.20;99.90;;;;;;5054357;28;20167;-77
2022/12/02 09:11:49;;;;;;;62.80;19.60;;;3.20;99.90;;;;;;5037637;28;20095;-76
2022/12/02 09:14:15;;;;;;;58.65;18.23;;;3.20;99.90;;;;;;5054373;28;20052;-75
2022/12/02 09:16:41;;;;;;;59.78;19.73;;;3.30;99.90;;;;;;5053819;28;20047;-81
2022/12/02 09:19:07;;;;;;;64.75;18.85;;;3.20;99.90;;;;;;5037449;28;20037;-76
2022/12/02 09:21:33;;;;;;;62.85;19.92;;;3.20;99.90;;;;;;5054266;28;20049;-75
2022/12/02 09:23:59;;;;;;;66.05;18.35;;;3.20;99.90;;;;;;5054071;28;20052;-75
2022/12/02 09:26:24;;;;;;;64.07;18.27;;;3.20;99.90;;;;;;5037379;28;20399;-76
2022/12/02 09:28:50;;;;;;;64.60;20.05;;;3.30;99.90;;;;;;5037406;28;20417;-76
2022/12/02 09:31:16;;;;;;;68.22;20.73;;;3.30;99.90;;;;;;5037259;28;20398;-76
2022/12/02 09:33:42;;;;;;;71.78;20.08;;;3.30;99.90;;;;;;5037167;28;20380;-76
2022/12/02 09:36:08;;;;;;;59.08;19.63;;;3.40;99.90;;;;;;5037021;28;20095;-76
2022/12/02 09:38:34;;;;;;;68.35;19.35;;;3.40;99.90;;;;;;5037110;28;20045;-75
2022/12/02 09:41:00;;;;;;;64.38;18.83;;;3.30;99.90;;;;;;5053423;28;20402;-76
2022/12/02 09:43:28;;;;;;;66.65;18.95;;;3.40;99.90;;;;;;5037784;28;20115;-76
2022/12/02 09:45:54;;;;;;;62.97;19.90;;;3.40;99.90;;;;;;5054136;28;20088;-76
2022/12/02 09:48:21;;;;;;;65.43;20.45;;;3.30;99.90;;;;;;5020661;28;20063;-73
2022/12/02 09:50:47;;;;;;;60.78;17.83;;;3.30;99.90;;;;;;5037099;28;20048;-75
2022/12/02 09:53:16;;;;;;;64.25;19.45;;;3.30;99.90;;;;;;5037046;28;20059;-76
2022/12/02 09:55:42;;;;;;;65.38;20.20;;;3.30;99.90;;;;;;5036807;28;20084;-76
2022/12/02 09:58:20;;;;;;;64.20;20.30;;;3.30;99.90;;;;;;5020439;28;20459;-75
2022/12/02 10:00:46;;;;;;;63.22;20.05;;;3.20;99.90;;;;;;5036947;28;20083;-77
2022/12/02 10:03:15;;;;;;;58.53;19.42;;;3.30;99.90;;;;;;5036746;28;20136;-77
2022/12/02 10:05:42;;;;;;;70.32;20.45;;;3.30;99.90;;;;;;5036788;28;20037;-76
2022/12/02 10:08:19;;;;;;;55.97;19.45;;;3.20;99.90;;;;;;5036600;28;20131;-76
2022/12/02 10:10:45;;;;;;;63.40;19.67;;;3.20;99.90;;;;;;5036374;28;20500;-76
2022/12/02 10:13:14;;;;;;;59.58;20.33;;;3.20;99.90;;;;;;5053120;28;20123;-75
2022/12/02 10:15:40;;;;;;;62.30;20.38;;;3.20;99.90;;;;;;5052932;28;20131;-76
2022/12/02 10:18:15;;;;;;;61.08;20.05;;;3.20;99.90;;;;;;5052401;28;20057;-75
2022/12/02 10:20:41;;;;;;;63.67;20.38;;;3.20;99.90;;;;;;5053265;28;20053;-77
2022/12/02 10:23:24;;;;;;;58.90;19.65;;;3.20;99.90;;;;;;5052456;28;20487;-75
2022/12/02 10:26:13;;;;;;;63.25;20.52;;;3.20;99.90;;;;;;5053346;28;20041;-80
2022/12/02 10:28:41;;;;;;;60.03;19.65;;;3.20;99.90;;;;;;5040302;28;20056;-76
2022/12/02 10:31:18;;;;;;;66.22;21.02;;;3.40;99.90;;;;;;5019987;28;20041;-75
2022/12/02 10:33:52;;;;;;;60.38;21.48;;;3.30;99.90;;;;;;5053389;28;20049;-75
2022/12/02 10:36:35;;;;;;;62.70;22.05;;;3.50;99.90;;;;;;5037438;28;20040;-76
2022/12/02 10:39:20;;;;;;;61.20;20.73;;;3.20;99.90;;;;;;5041581;28;20072;-76
2022/12/02 10:41:47;;;;;;;58.35;20.77;;;3.20;99.90;;;;;;5058901;28;20135;-76
2022/12/02 10:44:18;;;;;;;58.05;20.30;;;3.20;99.90;;;;;;5044224;28;20589;-74
2022/12/02 10:46:45;;;;;;;60.60;20.98;;;3.30;99.90;;;;;;5043118;28;20053;-75
2022/12/02 10:49:23;;;;;;;66.85;22.13;;;3.30;99.90;;;;;;5056155;28;20108;-76
2022/12/02 10:51:49;;;;;;;63.35;21.77;;;3.30;99.90;;;;;;5052752;28;20049;-76
2022/12/02 10:54:27;;;;;;;59.15;20.85;;;3.30;99.90;;;;;;5035805;28;20052;-75
2022/12/02 10:57:03;;;;;;;64.80;23.33;;;3.40;99.90;;;;;;5035446;28;20079;-76
2022/12/02 10:59:31;;;;;;;65.05;23.45;;;3.40;99.90;;;;;;5035925;28;20482;-75
2022/12/02 11:01:58;;;;;;;59.70;22.77;;;3.60;99.90;;;;;;5035484;28;20048;-76
2022/12/02 11:04:24;;;;;;;62.08;22.40;;;3.30;99.90;;;;;;5052153;28;20135;-76
2022/12/02 11:06:52;;;;;;;61.42;21.60;;;3.40;99.90;;;;;;5019291;28;20130;-76
2022/12/02 11:09:22;;;;;;;62.85;21.73;;;3.60;99.90;;;;;;5051530;28;20056;-76
2022/12/02 11:11:49;;;;;;;67.55;22.55;;;3.40;99.90;;;;;;5052220;28;20071;-75
2022/12/02 11:14:54;;;;;;;60.30;21.05;;;3.40;99.90;;;;;;5051660;28;20111;-75
2022/12/02 11:17:44;;;;;;;56.45;20.58;;;3.50;99.90;;;;;;5034318;28;20059;-76
2022/12/02 11:20:28;;;;;;;57.95;21.48;;;3.50;99.90;;;;;;5051723;28;20047;-76
2022/12/02 11:22:57;;;;;;;55.60;20.25;;;3.50;99.90;;;;;;5052154;28;20132;-76
2022/12/02 11:25:41;;;;;;;58.28;22.23;;;3.50;99.90;;;;;;5051921;28;20048;-76
2022/12/02 11:28:28;;;;;;;61.78;22.02;;;3.50;99.90;;;;;;5051604;28;20041;-76
2022/12/02 11:31:09;;;;;;;63.28;21.80;;;3.50;99.90;;;;;;5050863;28;20048;-75
2022/12/02 11:33:47;;;;;;;57.17;20.70;;;3.60;99.90;;;;;;5035244;28;20147;-75
2022/12/02 11:36:17;;;;;;;61.15;22.65;;;3.60;99.90;;;;;;5034961;28;20045;-76
2022/12/02 11:39:06;;;;;;;54.13;21.42;;;3.60;99.90;;;;;;5035406;28;20053;-76
2022/12/02 11:41:55;;;;;;;62.53;22.17;;;3.50;99.90;;;;;;5051937;28;20056;-76
2022/12/02 11:44:24;;;;;;;62.70;22.88;;;3.60;99.90;;;;;;5005535;28;20045;-75
2022/12/02 11:46:56;;;;;;;53.28;21.08;;;3.60;99.90;;;;;;5051695;28;20057;-75
2022/12/02 11:49:27;;;;;;;61.90;22.85;;;3.60;99.90;;;;;;5035044;28;20053;-76
2022/12/02 11:52:21;;;;;;;60.47;22.63;;;3.60;99.90;;;;;;5034736;28;20041;-75
2022/12/02 11:55:42;;;;;;;61.65;22.90;;;3.50;99.90;;;;;;5041015;28;20101;-76
2022/12/02 11:58:29;;;;;;;57.20;20.83;;;3.50;99.90;;;;;;4982153;28;20088;-76
2022/12/02 12:01:08;;;;;;;63.10;20.98;;;3.40;99.90;;;;;;5031448;28;20118;-76
2022/12/02 12:03:39;;;;;;;61.72;22.58;;;3.40;99.90;;;;;;5031260;28;20050;-75
2022/12/02 12:06:12;;;;;;;61.77;22.00;;;3.40;99.90;;;;;;5015230;28;20041;-75
2022/12/02 12:08:44;;;;;;;62.20;23.98;;;3.50;99.90;;;;;;5031525;28;20342;-76
2022/12/02 12:11:36;;;;;;;64.57;22.75;;;3.40;99.90;;;;;;5031225;28;20450;-76
2022/12/02 12:14:05;;;;;;;62.78;22.88;;;3.40;99.90;;;;;;5031403;28;20049;-76
2022/12/02 12:16:37;;;;;;;66.20;23.90;;;3.40;99.90;;;;;;5014243;28;20067;-76
2022/12/02 12:19:24;;;;;;;60.35;23.60;;;3.50;99.90;;;;;;4998749;28;20052;-74
2022/12/02 12:21:55;;;;;;;64.22;25.30;;;3.50;99.90;;;;;;5014661;28;20049;-75
2022/12/02 12:24:24;;;;;;;62.40;23.45;;;3.50;99.90;;;;;;5030809;28;20053;-75
2022/12/02 12:27:03;;;;;;;63.33;23.38;;;3.80;99.90;;;;;;5031283;28;20053;-75
2022/12/02 12:29:33;;;;;;;59.83;23.45;;;3.50;99.90;;;;;;5014682;28;20057;-76
2022/12/02 12:32:00;;;;;;;61.97;23.15;;;3.50;99.90;;;;;;4998658;28;20499;-75
2022/12/02 12:34:28;;;;;;;59.88;23.25;;;3.40;99.90;;;;;;5014416;28;20053;-75
2022/12/02 12:36:54;;;;;;;60.97;23.13;;;3.40;99.90;;;;;;5014284;28;20462;-76
2022/12/02 12:39:20;;;;;;;65.85;23.33;;;3.50;99.90;;;;;;5030588;28;20046;-75
2022/12/02 12:41:46;;;;;;;55.58;21.60;;;3.40;99.90;;;;;;5016143;28;20068;-75
2022/12/02 12:44:12;;;;;;;55.58;21.88;;;3.50;99.90;;;;;;5006325;28;20084;-77
2022/12/02 12:46:38;;;;;;;55.88;21.63;;;3.40;99.90;;;;;;5054374;28;20337;-76
2022/12/02 12:49:04;;;;;;;59.45;22.23;;;3.40;99.90;;;;;;5054570;28;20111;-76
2022/12/02 12:51:30;;;;;;;55.78;22.55;;;3.40;99.90;;;;;;5037666;28;20403;-76
2022/12/02 12:53:56;;;;;;;61.85;22.67;;;3.40;99.90;;;;;;5057537;28;20049;-76
2022/12/02 12:56:22;;;;;;;65.43;23.45;;;3.40;99.90;;;;;;5055924;28;20498;-75